Data for 04/17/2014

Time Sea-Level Adjusted Pressure Absolute Pressure Temperature Relative Humidity Dew Point   
(mb) (inHg) (mb) (inHg) (C) (F) (%) (C) (F)
00:05 1017 30.03 846 24.98 2.3 36.2 73 -2 28.3
00:10 1017 30.03 846 24.98 2.3 36.2 74 -1.9 28.6
00:15 1017 30.03 846 24.98 2.3 36.1 73 -2 28.4
00:20 1017 30.03 846 24.98 2.3 36.2 73 -2 28.5
00:25 1017 30.03 846 24.98 2.3 36.2 74 -1.9 28.6
00:30 1017 30.03 846 24.98 2.3 36.1 74 -2 28.5
00:35 1017 30.03 846 24.98 2.3 36.1 73 -2 28.3
00:40 1017 30.03 846 24.98 2.3 36.1 73 -2 28.4
00:45 1017 30.03 846 24.98 2.3 36.1 73 -2.1 28.3
00:50 1017 30.03 846 24.98 2.3 36.1 74 -1.9 28.7
00:55 1017 30.03 846 24.98 2.1 35.8 75 -1.9 28.6
01:00 1017 30.03 846 24.98 2 35.7 75 -1.9 28.6
01:05 1017 30.03 846 24.98 2.1 35.7 75 -2 28.5
01:10 1017 30.03 846 24.98 2 35.7 75 -2 28.5
01:15 1017 30.03 846 24.98 2 35.7 75 -2 28.5
01:20 1017 30.03 846 24.98 2 35.6 75 -1.9 28.5
01:25 1017 30.03 846 24.98 2 35.6 75 -1.9 28.6
01:30 1017 30.03 846 24.98 1.9 35.4 75 -2 28.4
01:35 1017 30.03 846 24.98 1.9 35.4 75 -2.1 28.3
01:40 1017 30.03 846 24.98 1.9 35.4 75 -2.1 28.2
01:45 1017 30.03 846 24.98 1.9 35.4 75 -2.1 28.3
01:50 1017 30.03 846 24.98 1.8 35.2 75 -2.1 28.2
01:55 1017 30.03 846 24.98 1.8 35.2 75 -2.2 28
02:00 1017 30.03 846 24.98 1.8 35.2 74 -2.4 27.7
02:05 1017 30.03 846 24.98 1.8 35.2 74 -2.4 27.7
02:10 1017 30.03 846 24.98 1.7 35.1 74 -2.4 27.6
02:15 1017 30.03 846 24.98 1.7 35 74 -2.4 27.7
02:20 1017 30.03 846 24.98 1.6 35 74 -2.6 27.4
02:25 1017 30.03 846 24.98 1.7 35 73 -2.7 27.2
02:30 1016 30 846 24.98 1.6 34.9 74 -2.6 27.4
02:35 1016 30 846 24.98 1.5 34.8 74 -2.5 27.5
02:40 1016 30 846 24.98 1.5 34.7 75 -2.5 27.5
02:45 1016 30 846 24.98 1.5 34.7 75 -2.5 27.5
02:50 1016 30 845 24.95 1.5 34.7 75 -2.5 27.5
02:55 1016 30 845 24.95 1.5 34.7 75 -2.5 27.5
03:00 1016 30 845 24.95 1.5 34.8 74 -2.5 27.4
03:05 1016 30 845 24.95 1.5 34.8 74 -2.6 27.4
03:10 1016 30 845 24.95 1.5 34.7 74 -2.7 27.2
03:15 1016 30 845 24.95 1.5 34.8 73 -2.8 27
03:20 1016 30 845 24.95 1.5 34.7 74 -2.7 27.2
03:25 1016 30 845 24.95 1.5 34.7 73 -2.8 26.9
03:30 1016 30 845 24.95 1.6 34.8 71 -3.2 26.2
03:35 1016 30 845 24.95 1.7 35.1 69 -3.3 26.1
03:40 1016 30 845 24.95 1.8 35.2 70 -3.1 26.5
03:45 1016 30 845 24.95 1.7 35 71 -3 26.6
03:50 1016 30 845 24.95 1.5 34.8 71 -3.2 26.3
03:55 1016 30 845 24.95 1.6 34.9 70 -3.2 26.3
04:00 1016 30 845 24.95 1.6 35 69 -3.5 25.7
04:05 1016 30 845 24.95 1.6 34.9 70 -3.3 26
04:10 1016 30 845 24.95 1.4 34.6 70 -3.5 25.7
04:15 1016 30 845 24.95 1.4 34.6 69 -3.6 25.6
04:20 1016 30 845 24.95 1.4 34.6 69 -3.7 25.4
04:25 1016 30 845 24.95 1.5 34.7 69 -3.6 25.6
04:30 1016 30 845 24.95 1.5 34.6 70 -3.3 26
04:35 1016 30 845 24.95 1.3 34.3 71 -3.5 25.7
04:40 1016 30 845 24.95 1.5 34.6 68 -3.9 25
04:45 1016 30 845 24.95 1.7 35 68 -3.7 25.3
04:50 1016 30 845 24.95 1.5 34.7 68 -3.8 25.1
04:55 1016 30 845 24.95 1.4 34.6 68 -3.8 25.1
05:00 1016 30 845 24.95 1.4 34.6 67 -3.9 24.9
05:05 1016 30 845 24.95 1.5 34.7 68 -3.8 25.1
05:10 1016 30 845 24.95 1.4 34.5 68 -3.8 25.1
05:15 1016 30 845 24.95 1.3 34.4 68 -4 24.9
05:20 1016 30 845 24.95 1.3 34.3 68 -3.9 25
05:25 1016 30 845 24.95 1.2 34.2 69 -3.8 25.1
05:30 1016 30 845 24.95 1.1 34 69 -3.9 25.1
05:35 1016 30 845 24.95 1 33.7 71 -3.6 25.5
05:40 1016 30 845 24.95 0.7 33.3 72 -3.8 25.2
05:45 1016 30 845 24.95 0.8 33.5 70 -4 24.7
05:50 1016 30 845 24.95 0.9 33.5 71 -3.9 25
05:55 1016 30 845 24.95 0.7 33.3 70 -4.1 24.7
06:00 1016 30 845 24.95 0.8 33.4 68 -4.4 24.1
06:05 1016 30 845 24.95 1.1 33.9 67 -4.5 24
06:10 1016 30 845 24.95 1.2 34.1 69 -4 24.9
06:15 1016 30 845 24.95 1.1 34 68 -4.2 24.4
06:20 1016 30 845 24.95 1.3 34.3 67 -4.1 24.6
06:25 1016 30 845 24.95 1.3 34.3 67 -4.1 24.5
06:30 1016 30 845 24.95 1.5 34.7 65 -4.4 24
06:35 1016 30 845 24.95 2 35.7 62 -4.4 24.1
06:40 1016 30 845 24.95 2.6 36.7 62 -3.9 24.9
06:45 1016 30 845 24.95 2.5 36.5 61 -4.2 24.5
06:50 1016 30 845 24.95 2.4 36.3 60 -4.5 24
06:55 1016 30 845 24.95 2.7 36.8 60 -4.4 24.1
07:00 1016 30 845 24.95 2.9 37.3 58 -4.4 24
07:05 1016 30 845 24.95 2.9 37.3 58 -4.6 23.7
07:10 1016 30 845 24.95 3.1 37.6 57 -4.6 23.7
07:15 1016 30 845 24.95 3.4 38.2 55 -4.8 23.3
07:20 1016 30 845 24.95 3.7 38.6 54 -4.7 23.6
07:25 1016 30 845 24.95 4 39.1 54 -4.6 23.8
07:30 1016 30 845 24.95 4.3 39.7 54 -4.3 24.2
07:35 1016 30 845 24.95 4.6 40.2 52 -4.5 23.8
07:40 1016 30 845 24.95 4.9 40.8 51 -4.5 23.9
07:45 1016 30 845 24.95 5.1 41.2 51 -4.3 24.3
07:50 1016 30 845 24.95 5.3 41.5 50 -4.2 24.4
07:55 1016 30 845 24.95 5.5 41.9 50 -4.1 24.6
08:00 1016 30 845 24.95 5.7 42.3 47 -4.7 23.6
08:05 1016 30 845 24.95 6.1 43 47 -4.3 24.2
08:10 1016 30 845 24.95 6.4 43.5 45 -4.6 23.8
08:15 1016 30 845 24.95 6.7 44.1 40 -5.8 21.5
08:20 1016 30 845 24.95 7.2 45 36 -6.9 19.6
08:25 1016 30 845 24.95 7.4 45.3 35 -7 19.5
08:30 1016 30 845 24.95 8.1 46.5 34 -7 19.3
08:35 1016 30 845 24.95 8 46.5 32 -7.5 18.5
08:40 1016 30 845 24.95 8.3 47 34 -6.6 20.1
08:45 1015 29.97 845 24.95 8.2 46.8 33 -7.2 19
08:50 1015 29.97 845 24.95 8.5 47.4 33 -7 19.4
08:55 1015 29.97 845 24.95 8.8 47.9 32 -6.9 19.6
09:00 1015 29.97 845 24.95 9 48.2 31 -7.1 19.2
09:05 1015 29.97 845 24.95 9.9 49.7 31 -6.4 20.4
09:10 1015 29.97 845 24.95 9.3 48.7 31 -7.1 19.2
09:15 1015 29.97 845 24.95 9.5 49.1 29 -7.5 18.4
09:20 1015 29.97 845 24.95 9.7 49.5 29 -7.3 18.8
09:25 1015 29.97 844 24.92 10.9 51.6 27 -7.5 18.5
09:30 1015 29.97 844 24.92 11.7 53 27 -6.9 19.5
09:35 1015 29.97 844 24.92 11.9 53.5 26 -6.8 19.7
09:40 1015 29.97 844 24.92 11.3 52.3 26 -7.5 18.6
09:45 1015 29.97 844 24.92 11.2 52.1 26 -7.5 18.5
09:50 1015 29.97 844 24.92 11.8 53.3 26 -7.1 19.3
09:55 1015 29.97 844 24.92 11.7 53 26 -7.2 19.1
10:00 1015 29.97 844 24.92 10.9 51.7 27 -7.3 18.8
10:05 1015 29.97 844 24.92 11.2 52.1 27 -7.3 18.8
10:10 1015 29.97 844 24.92 11.3 52.3 27 -6.9 19.5
10:15 1015 29.97 844 24.92 11.2 52.2 27 -7 19.3
10:20 1015 29.97 844 24.92 11.2 52.1 28 -6.6 20.2
10:25 1015 29.97 844 24.92 11.2 52.1 28 -6.7 19.9
10:30 1015 29.97 844 24.92 11.2 52.2 28 -6.4 20.5
10:35 1015 29.97 844 24.92 11.3 52.3 28 -6.8 19.8
10:40 1015 29.97 844 24.92 11.6 52.9 28 -6.4 20.5
10:45 1015 29.97 844 24.92 11.7 53 27 -6.8 19.7
10:50 1015 29.97 844 24.92 11.8 53.3 28 -6.2 20.9
10:55 1015 29.97 844 24.92 11.3 52.3 28 -6.5 20.3
11:00 1015 29.97 844 24.92 12 53.5 26 -6.7 19.9
11:05 1015 29.97 844 24.92 11.9 53.4 27 -6.4 20.5
11:10 1015 29.97 844 24.92 11.1 51.9 28 -6.5 20.3
11:15 1015 29.97 844 24.92 11.5 52.7 28 -6.5 20.2
11:20 1014 29.94 844 24.92 11.3 52.4 27 -6.8 19.7
11:25 1014 29.94 844 24.92 12.2 54 26 -6.7 19.9
11:30 1014 29.94 844 24.92 12 53.7 27 -6.2 20.8
11:35 1014 29.94 843 24.89 11.9 53.3 27 -6.6 20.1
11:40 1014 29.94 843 24.89 12.5 54.5 26 -6.6 20.1
11:45 1014 29.94 843 24.89 12.9 55.1 24 -7 19.3
11:50 1014 29.94 843 24.89 13.2 55.7 24 -6.9 19.5
11:55 1014 29.94 843 24.89 13 55.4 24 -7.2 19.1
12:00 1014 29.94 843 24.89 13.6 56.4 24 -6.7 19.9
12:05 1014 29.94 843 24.89 13.3 56 24 -7 19.4
12:10 1014 29.94 843 24.89 13.7 56.7 24 -6.6 20.2
12:15 1014 29.94 843 24.89 13.7 56.7 24 -6.5 20.2
12:20 1014 29.94 843 24.89 13.7 56.7 23 -7.1 19.2
12:25 1014 29.94 843 24.89 14.1 57.4 23 -6.8 19.7
12:30 1014 29.94 843 24.89 14.5 58.1 22 -7.2 19.1
12:35 1013 29.91 843 24.89 15 58.9 21 -7.3 18.9
12:40 1013 29.91 843 24.89 14.6 58.4 22 -6.7 20
12:45 1013 29.91 843 24.89 15 58.9 20 -7.6 18.3
12:50 1013 29.91 842 24.86 15.3 59.5 21 -6.7 19.9
12:55 1013 29.91 842 24.86 14.4 57.9 22 -7.3 18.9
13:00 1013 29.91 842 24.86 14.9 58.8 20 -7.7 18.1
13:05 1013 29.91 842 24.86 14.6 58.3 22 -6.9 19.5
13:10 1013 29.91 842 24.86 15 58.9 19 -8.1 17.4
13:15 1013 29.91 842 24.86 15.4 59.7 21 -6.7 19.9
13:20 1013 29.91 842 24.86 14.9 58.7 21 -7.4 18.7
13:25 1013 29.91 842 24.86 14.4 57.9 22 -7.2 19.1
13:30 1013 29.91 842 24.86 14.3 57.7 22 -7.1 19.2
13:35 1013 29.91 842 24.86 13.8 56.8 23 -7.2 19
13:40 1013 29.91 842 24.86 14.6 58.3 21 -7.2 19
13:45 1012 29.88 842 24.86 15.4 59.6 22 -6.3 20.6
13:50 1012 29.88 842 24.86 15.3 59.6 21 -7.1 19.2
13:55 1012 29.88 842 24.86 14.9 58.7 22 -6.6 20.2
14:00 1012 29.88 842 24.86 15.1 59.2 22 -6.2 20.8
14:05 1012 29.88 842 24.86 15.3 59.5 22 -6.1 21.1
14:10 1012 29.88 842 24.86 15.3 59.6 23 -5.8 21.6
14:15 1012 29.88 841 24.83 15.2 59.4 24 -5.2 22.7
14:20 1012 29.88 841 24.83 15.4 59.6 24 -5 23
14:25 1012 29.88 841 24.83 15.5 60 24 -4.9 23.2
14:30 1012 29.88 841 24.83 15.5 59.9 24 -5 23
14:35 1012 29.88 841 24.83 15.5 59.9 25 -4.5 23.8
14:40 1012 29.88 841 24.83 15.4 59.7 24 -4.9 23.2
14:45 1012 29.88 841 24.83 15.4 59.8 25 -4.6 23.8
14:50 1012 29.88 841 24.83 15.4 59.7 23 -5.8 21.6
14:55 1012 29.88 841 24.83 15.1 59.1 23 -5.9 21.4
15:00 1012 29.88 841 24.83 15.1 59.2 23 -5.9 21.5
15:05 1012 29.88 841 24.83 15.3 59.6 23 -5.5 22
15:10 1012 29.88 841 24.83 14.7 58.5 24 -5.6 22
15:15 1012 29.88 841 24.83 14.5 58.2 22 -6.6 20.1
15:20 1012 29.88 841 24.83 14.5 58 23 -6.1 21
15:25 1012 29.88 841 24.83 14.6 58.4 23 -6.4 20.4
15:30 1012 29.88 841 24.83 14.8 58.7 22 -6.5 20.3
15:35 1012 29.88 841 24.83 14.7 58.5 22 -6.7 20
15:40 1012 29.88 841 24.83 14.4 58 22 -6.8 19.7
15:45 1012 29.88 841 24.83 14.3 57.7 22 -7 19.3
15:50 1012 29.88 841 24.83 14.4 58 22 -6.8 19.7
15:55 1012 29.88 841 24.83 14.4 57.8 23 -6.3 20.6
16:00 1012 29.88 841 24.83 14.4 58 23 -6.4 20.5
16:05 1012 29.88 841 24.83 14.4 57.9 24 -6 21.1
16:10 1012 29.88 841 24.83 14.3 57.8 24 -6 21.1
16:15 1012 29.88 841 24.83 14.1 57.4 24 -6.3 20.7
16:20 1012 29.88 841 24.83 14.1 57.3 24 -5.9 21.4
16:25 1012 29.88 841 24.83 14.1 57.3 25 -5.8 21.6
16:30 1012 29.88 841 24.83 14.1 57.3 23 -6.5 20.3
16:35 1012 29.88 841 24.83 14 57.2 24 -6.1 21
16:40 1012 29.88 841 24.83 13.9 57.1 24 -6.2 20.8
16:45 1012 29.88 841 24.83 14 57.1 25 -5.8 21.6
16:50 1012 29.88 841 24.83 13.9 57 25 -5.9 21.4
16:55 1012 29.88 841 24.83 13.9 57 25 -5.6 21.8
17:00 1012 29.88 841 24.83 13.8 56.9 25 -5.9 21.3
17:05 1012 29.88 841 24.83 13.7 56.7 26 -5.5 22.1
17:10 1012 29.88 841 24.83 13.7 56.7 27 -4.8 23.4
17:15 1012 29.88 841 24.83 13.7 56.6 27 -4.7 23.5
17:20 1012 29.88 841 24.83 13.6 56.6 28 -4.7 23.6
17:25 1012 29.88 841 24.83 13.6 56.5 28 -4.7 23.5
17:30 1012 29.88 841 24.83 13.5 56.3 28 -4.6 23.7
17:35 1012 29.88 841 24.83 13.5 56.4 28 -4.6 23.8
17:40 1011 29.85 841 24.83 13.5 56.2 29 -4 24.7
17:45 1011 29.85 841 24.83 13.5 56.2 29 -4.1 24.6
17:50 1011 29.85 841 24.83 13.4 56.2 29 -4.2 24.4
17:55 1011 29.85 841 24.83 13.5 56.2 29 -4.2 24.4
18:00 1011 29.85 840 24.81 13.4 56.1 29 -4.2 24.4
18:05 1011 29.85 840 24.81 13.4 56.1 30 -4 24.8
18:10 1011 29.85 840 24.81 13.3 55.9 29 -4.1 24.6
18:15 1011 29.85 840 24.81 13.3 56 30 -4 24.8
18:20 1011 29.85 840 24.81 13.3 56 29 -4.2 24.4
18:25 1011 29.85 840 24.81 13.3 55.9 29 -4.2 24.4
18:30 1011 29.85 840 24.81 13.3 56 28 -4.6 23.7
18:35 1011 29.85 840 24.81 13.3 56 28 -4.8 23.4
18:40 1011 29.85 840 24.81 13.4 56 28 -4.7 23.5
18:45 1011 29.85 840 24.81 13.4 56.1 28 -4.7 23.5
18:50 1011 29.85 840 24.81 13.3 55.9 28 -4.6 23.7
18:55 1011 29.85 840 24.81 13.2 55.8 28 -4.7 23.5
19:00 1011 29.85 840 24.81 13.1 55.6 28 -4.8 23.4
19:05 1011 29.85 840 24.81 13 55.5 28 -4.8 23.3
19:10 1011 29.85 840 24.81 12.9 55.2 29 -4.7 23.5
19:15 1011 29.85 840 24.81 12.7 54.9 29 -5 23
19:20 1011 29.85 840 24.81 12.7 54.8 29 -4.8 23.4
19:25 1011 29.85 840 24.81 12.4 54.3 32 -3.8 25.1
19:30 1010 29.83 840 24.81 11.9 53.4 33 -3.9 25
19:35 1010 29.83 840 24.81 11.6 52.9 33 -3.9 24.9
19:40 1010 29.83 840 24.81 11.4 52.6 34 -3.8 25.2
19:45 1011 29.85 840 24.81 11.3 52.3 33 -4.3 24.2
19:50 1011 29.85 840 24.81 11.3 52.3 34 -4.1 24.7
19:55 1011 29.85 840 24.81 11.1 51.9 34 -4.4 24.2
20:00 1011 29.85 840 24.81 10.9 51.6 35 -4 24.7
20:05 1011 29.85 840 24.81 10.8 51.4 35 -4.1 24.7
20:10 1011 29.85 840 24.81 10.6 51 35 -4.3 24.3
20:15 1010 29.83 840 24.81 10.5 50.8 35 -4.4 24.2
20:20 1011 29.85 840 24.81 10.3 50.6 35 -4.4 24
20:25 1011 29.85 840 24.81 10.2 50.4 35 -4.4 24.1
20:30 1010 29.83 840 24.81 10.2 50.3 34 -4.8 23.3
20:35 1010 29.83 840 24.81 10.2 50.3 35 -4.6 23.7
20:40 1010 29.83 840 24.81 10.1 50.2 35 -4.6 23.7
20:45 1010 29.83 840 24.81 10 50 36 -4.4 24.1
20:50 1010 29.83 840 24.81 9.9 49.7 36 -4.3 24.2
20:55 1010 29.83 840 24.81 9.7 49.4 37 -4.4 24
21:00 1010 29.83 839 24.78 9.5 49.2 37 -4.4 24.1
21:05 1010 29.83 839 24.78 9.5 49 37 -4.3 24.2
21:10 1010 29.83 839 24.78 9.4 48.8 37 -4.6 23.8
21:15 1010 29.83 839 24.78 9.4 48.8 37 -4.5 23.9
21:20 1010 29.83 839 24.78 9.3 48.7 38 -4.2 24.4
21:25 1010 29.83 839 24.78 9 48.3 40 -4 24.8
21:30 1010 29.83 839 24.78 8.8 47.8 41 -3.9 25
21:35 1010 29.83 839 24.78 8.7 47.7 40 -4 24.8
21:40 1010 29.83 839 24.78 8.8 47.8 39 -4.3 24.3
21:45 1010 29.83 839 24.78 8.9 48.1 39 -4.3 24.3
21:50 1010 29.83 839 24.78 8.9 48 39 -4.3 24.3
21:55 1009 29.8 839 24.78 8.9 47.9 38 -4.7 23.6
22:00 1009 29.8 839 24.78 9 48.1 38 -4.6 23.8
22:05 1009 29.8 839 24.78 8.9 48.1 38 -4.7 23.6
22:10 1009 29.8 839 24.78 9.1 48.4 36 -5 23
22:15 1009 29.8 839 24.78 9.2 48.6 36 -5 23
22:20 1009 29.8 839 24.78 9.3 48.7 36 -5 23.1
22:25 1009 29.8 839 24.78 9.3 48.8 36 -5.1 22.9
22:30 1009 29.8 839 24.78 9.3 48.7 37 -4.6 23.8
22:35 1009 29.8 838 24.75 9.1 48.4 37 -4.7 23.5
22:40 1009 29.8 838 24.75 9.2 48.5 37 -4.9 23.2
22:45 1009 29.8 838 24.75 9.2 48.6 37 -4.6 23.6
22:50 1009 29.8 838 24.75 9.1 48.4 37 -4.6 23.7
22:55 1009 29.8 838 24.75 9.1 48.4 37 -4.8 23.3
23:00 1009 29.8 838 24.75 9.3 48.8 36 -4.9 23.1
23:05 1009 29.8 838 24.75 9.4 48.8 37 -4.5 23.8
23:10 1009 29.8 838 24.75 9.2 48.5 38 -4.4 24.1
23:15 1009 29.8 838 24.75 9.3 48.7 37 -4.7 23.5
23:20 1009 29.8 838 24.75 9.5 49 36 -4.7 23.5
23:25 1009 29.8 838 24.75 9.5 49.1 36 -4.7 23.5
23:30 1009 29.8 838 24.75 9.6 49.2 37 -4.6 23.8
23:35 1009 29.8 838 24.75 9.5 49.1 37 -4.4 24.1
23:40 1009 29.8 838 24.75 9.4 48.8 37 -4.6 23.7
23:45 1008 29.77 838 24.75 9.4 48.9 37 -4.4 24.1
23:50 1008 29.77 838 24.75 9.3 48.7 37 -4.5 23.9
23:55 1008 29.77 838 24.75 9.3 48.7 37 -4.6 23.7
24:00 1008 29.77 838 24.75 9.5 49.2 36 -4.9 23.1